Time;durP1;ratioP1;P1;durP2;ratioP2;P2;SDS_P1;SDS_P2;PMS_P1;PMS_P2;Temp;Humidity;BMP_temperature;BMP_pressure;BME280_temperature;BME280_humidity;BME280_pressure;Samples;Min_cycle;Max_cycle;Signal;HPM_P1;HPM_P2
2023/10/01 00:01:03;;;;;;;11.25;4.47;;;22.00;65.80;;;;;;5076193;27;20036;-77
2023/10/01 00:03:30;;;;;;;10.07;4.93;;;22.00;65.90;;;;;;5075166;28;20085;-79
2023/10/01 00:05:58;;;;;;;9.63;4.72;;;21.90;66.00;;;;;;5078091;27;20609;-78
2023/10/01 00:08:27;;;;;;;9.85;4.90;;;22.00;66.00;;;;;;5074243;28;20044;-76
2023/10/01 00:10:55;;;;;;;8.15;4.15;;;21.90;66.10;;;;;;5092410;28;20126;-75
2023/10/01 00:13:23;;;;;;;10.77;4.82;;;21.90;66.10;;;;;;5074334;28;20083;-75
2023/10/01 00:15:50;;;;;;;9.68;4.38;;;21.90;66.30;;;;;;5074109;28;20432;-76
2023/10/01 00:18:17;;;;;;;8.07;4.80;;;21.90;66.20;;;;;;5075692;28;20039;-77
2023/10/01 00:20:46;;;;;;;8.52;4.78;;;21.90;66.30;;;;;;5090187;28;20058;-77
2023/10/01 00:23:14;;;;;;;9.48;4.03;;;21.90;66.10;;;;;;5074298;28;20108;-77
2023/10/01 00:25:43;;;;;;;7.40;4.07;;;21.80;66.30;;;;;;5071709;28;20075;-77
2023/10/01 00:28:11;;;;;;;7.57;4.38;;;21.80;66.50;;;;;;5069908;28;20044;-75
2023/10/01 00:30:38;;;;;;;7.85;4.82;;;21.80;66.30;;;;;;5078271;28;20042;-76
2023/10/01 00:33:07;;;;;;;8.13;4.80;;;21.80;66.40;;;;;;5076733;27;20055;-75
2023/10/01 00:35:40;;;;;;;13.70;4.80;;;21.80;66.40;;;;;;5088757;28;20448;-77
2023/10/01 00:38:11;;;;;;;10.30;4.95;;;21.80;66.50;;;;;;5090692;27;20130;-76
2023/10/01 00:40:42;;;;;;;9.43;5.00;;;21.80;66.40;;;;;;5096939;27;20047;-78
2023/10/01 00:43:11;;;;;;;9.57;4.65;;;21.80;66.50;;;;;;5081009;27;20504;-76
2023/10/01 00:45:39;;;;;;;10.45;5.50;;;21.80;66.70;;;;;;5086064;28;20486;-77
2023/10/01 00:48:14;;;;;;;7.65;4.70;;;21.80;66.80;;;;;;5100229;27;20045;-78
2023/10/01 00:50:42;;;;;;;8.45;4.60;;;21.90;66.90;;;;;;5078670;28;20055;-77
2023/10/01 00:53:10;;;;;;;10.65;4.93;;;21.70;66.90;;;;;;5082064;27;20040;-77
2023/10/01 00:55:39;;;;;;;8.68;4.80;;;21.60;67.10;;;;;;5084598;28;20398;-76
2023/10/01 00:58:09;;;;;;;10.32;5.45;;;21.60;67.20;;;;;;5083850;27;20118;-77
2023/10/01 01:00:37;;;;;;;11.85;5.30;;;21.70;67.10;;;;;;5086941;28;20035;-75
2023/10/01 01:05:57;;;;;;;9.68;4.82;;;21.60;67.50;;;;;;5082704;27;20070;-75
2023/10/01 01:08:33;;;;;;;9.45;5.07;;;21.60;67.40;;;;;;5084499;27;20036;-76
2023/10/01 01:11:01;;;;;;;9.48;5.40;;;21.50;67.50;;;;;;5083890;27;20063;-75
2023/10/01 01:13:30;;;;;;;8.43;4.82;;;21.50;67.50;;;;;;5085832;27;20035;-75
2023/10/01 01:16:00;;;;;;;9.35;5.35;;;21.50;67.50;;;;;;5085338;27;20145;-74
2023/10/01 01:18:28;;;;;;;11.15;5.00;;;21.60;67.50;;;;;;5082376;28;20372;-75
2023/10/01 01:20:58;;;;;;;11.07;5.43;;;21.60;67.40;;;;;;5103638;27;20054;-74
2023/10/01 01:23:30;;;;;;;10.50;4.35;;;21.60;67.30;;;;;;5095043;28;20040;-75
2023/10/01 01:25:59;;;;;;;11.77;5.30;;;21.50;67.20;;;;;;5082800;27;20055;-73
2023/10/01 01:28:30;;;;;;;11.98;4.72;;;21.50;67.50;;;;;;5083485;27;20557;-75
2023/10/01 01:31:02;;;;;;;6.88;4.20;;;21.50;67.50;;;;;;5084593;27;20046;-75
2023/10/01 01:33:40;;;;;;;9.25;4.85;;;21.50;67.50;;;;;;5080057;27;20510;-73
2023/10/01 01:36:17;;;;;;;9.35;4.97;;;21.50;67.60;;;;;;5098245;27;20130;-75
2023/10/01 01:39:27;;;;;;;10.57;4.93;;;21.50;67.70;;;;;;5086101;27;20066;-74
2023/10/01 01:41:54;;;;;;;;;;;21.50;68.00;;;;;;5082147;27;20043;-75
2023/10/01 01:44:23;;;;;;;8.65;4.60;;;21.40;68.00;;;;;;5084239;27;19961;-74
2023/10/01 01:46:59;;;;;;;11.38;5.10;;;21.30;68.20;;;;;;5080002;28;20035;-75
2023/10/01 01:49:28;;;;;;;16.38;5.57;;;21.30;68.30;;;;;;5075579;28;20059;-75
2023/10/01 01:52:03;;;;;;;12.98;5.30;;;21.30;68.50;;;;;;5094304;28;20049;-75
2023/10/01 01:54:37;;;;;;;12.32;5.07;;;21.30;68.60;;;;;;5077119;28;20127;-75
2023/10/01 01:57:12;;;;;;;11.68;5.38;;;21.30;68.70;;;;;;5084036;28;20107;-74
2023/10/01 01:59:41;;;;;;;11.30;5.70;;;21.20;68.90;;;;;;5081153;28;20125;-75
2023/10/01 02:02:09;;;;;;;23.42;5.80;;;21.20;69.00;;;;;;5098137;28;20556;-76
2023/10/01 02:07:24;;;;;;;10.98;4.80;;;21.10;69.10;;;;;;5100253;28;20082;-74
2023/10/01 02:09:51;;;;;;;15.10;5.15;;;21.20;69.00;;;;;;5090631;28;20036;-75
2023/10/01 02:12:24;;;;;;;11.27;5.15;;;21.10;69.10;;;;;;5087520;28;20058;-77
2023/10/01 02:14:55;;;;;;;13.65;5.70;;;21.10;69.10;;;;;;5101795;28;20518;-74
2023/10/01 02:17:22;;;;;;;;;;;21.10;69.40;;;;;;5083590;28;20078;-74
2023/10/01 02:19:49;;;;;;;13.75;5.18;;;21.00;69.30;;;;;;5082455;28;19926;-74
2023/10/01 02:22:17;;;;;;;8.77;4.97;;;21.10;69.10;;;;;;5097389;28;20079;-76
2023/10/01 02:24:45;;;;;;;9.65;5.63;;;21.10;69.10;;;;;;5073472;28;20424;-74
2023/10/01 02:27:15;;;;;;;10.23;6.18;;;21.10;69.30;;;;;;5078106;28;20036;-75
2023/10/01 02:30:11;;;;;;;;;;;21.10;69.10;;;;;;5088886;28;20477;-72
2023/10/01 02:32:49;;;;;;;7.18;4.38;;;21.10;69.20;;;;;;5097300;28;19967;-74
2023/10/01 02:35:35;;;;;;;12.55;5.28;;;21.10;69.10;;;;;;5077180;28;20036;-73
2023/10/01 02:38:07;;;;;;;13.77;5.05;;;21.10;69.30;;;;;;5086240;28;20059;-73
2023/10/01 02:40:38;;;;;;;9.38;4.88;;;21.00;69.60;;;;;;5085925;28;20390;-75
2023/10/01 02:43:09;;;;;;;15.07;5.43;;;21.00;69.80;;;;;;5090451;28;20071;-76
2023/10/01 02:45:41;;;;;;;9.15;4.80;;;21.00;69.70;;;;;;5071176;28;20446;-75
2023/10/01 02:48:18;;;;;;;9.43;6.00;;;21.00;69.70;;;;;;5082862;28;20055;-77
2023/10/01 02:50:54;;;;;;;11.65;6.03;;;21.10;69.60;;;;;;5082719;28;20039;-76
2023/10/01 02:53:23;;;;;;;11.57;5.25;;;21.10;69.60;;;;;;5089791;28;20050;-74
2023/10/01 02:55:52;;;;;;;8.48;5.10;;;21.00;69.90;;;;;;5084641;28;20448;-75
2023/10/01 02:58:26;;;;;;;12.13;5.75;;;21.10;69.80;;;;;;5090904;28;20052;-75
2023/10/01 03:00:54;;;;;;;15.63;6.78;;;21.00;70.30;;;;;;5085838;28;20518;-75
2023/10/01 03:03:32;;;;;;;12.45;5.60;;;21.00;70.50;;;;;;5077247;28;20170;-75
2023/10/01 03:06:08;;;;;;;14.85;5.78;;;20.90;70.20;;;;;;5073663;28;20035;-75
2023/10/01 03:08:59;;;;;;;10.40;5.10;;;20.80;70.50;;;;;;5087241;28;20437;-74
2023/10/01 03:11:35;;;;;;;;;;;20.80;70.90;;;;;;5072517;28;20036;-76
2023/10/01 03:14:04;;;;;;;8.95;6.07;;;20.80;70.90;;;;;;5105169;28;19926;-76
2023/10/01 03:16:45;;;;;;;19.03;5.70;;;20.80;71.20;;;;;;5081147;28;20065;-75
2023/10/01 03:19:18;;;;;;;10.80;5.30;;;20.70;71.40;;;;;;5100082;28;20050;-75
2023/10/01 03:24:41;;;;;;;11.38;5.03;;;20.70;71.50;;;;;;5093354;28;20447;-76
2023/10/01 03:27:27;;;;;;;10.77;5.32;;;20.70;71.40;;;;;;5081295;28;20054;-77
2023/10/01 03:30:18;;;;;;;12.25;5.45;;;20.40;72.10;;;;;;5091243;28;20094;-76
2023/10/01 03:32:46;;;;;;;11.60;5.35;;;20.40;72.80;;;;;;5076906;28;20040;-77
2023/10/01 03:35:13;;;;;;;16.77;6.05;;;20.50;72.60;;;;;;5077269;28;20130;-76
2023/10/01 03:37:43;;;;;;;14.23;6.18;;;20.20;73.20;;;;;;5073213;27;20043;-75
2023/10/01 03:40:22;;;;;;;11.13;6.22;;;20.10;73.80;;;;;;5089983;28;20474;-76
2023/10/01 03:42:51;;;;;;;11.65;5.35;;;20.10;73.80;;;;;;5086400;28;20479;-76
2023/10/01 03:45:37;;;;;;;12.75;5.97;;;20.10;73.80;;;;;;5074600;28;20429;-77
2023/10/01 03:48:19;;;;;;;18.02;5.78;;;20.30;73.40;;;;;;5075742;28;20075;-76
2023/10/01 03:50:46;;;;;;;12.73;5.60;;;20.50;73.20;;;;;;5076801;28;20035;-74
2023/10/01 03:53:18;;;;;;;12.07;5.93;;;20.50;72.70;;;;;;5077827;28;20044;-74
2023/10/01 03:55:46;;;;;;;9.85;5.90;;;20.50;72.60;;;;;;5089500;28;20035;-75
2023/10/01 03:58:26;;;;;;;14.55;6.30;;;20.30;72.90;;;;;;5079823;28;20131;-74
2023/10/01 04:00:54;;;;;;;13.32;5.90;;;20.40;73.20;;;;;;5072995;28;20058;-74
2023/10/01 04:03:22;;;;;;;16.25;6.22;;;20.50;73.10;;;;;;5093867;28;20084;-75
2023/10/01 04:05:56;;;;;;;15.57;5.97;;;20.60;73.00;;;;;;5074530;28;20399;-76
2023/10/01 04:08:24;;;;;;;12.75;6.05;;;20.60;73.30;;;;;;5090097;28;20035;-76
2023/10/01 04:10:58;;;;;;;15.90;6.80;;;20.20;73.30;;;;;;5073155;28;20376;-76
2023/10/01 04:13:27;;;;;;;11.98;5.13;;;20.30;73.40;;;;;;5076029;28;20105;-77
2023/10/01 04:15:56;;;;;;;14.07;6.07;;;20.30;73.40;;;;;;5091351;28;20059;-76
2023/10/01 04:18:28;;;;;;;13.60;5.88;;;20.30;73.40;;;;;;5080653;28;20039;-76
2023/10/01 04:23:31;;;;;;;11.25;6.07;;;20.20;73.80;;;;;;5091585;28;20502;-76
2023/10/01 04:26:07;;;;;;;13.43;6.22;;;20.20;74.50;;;;;;5083029;27;20054;-78
2023/10/01 04:28:45;;;;;;;15.88;6.35;;;20.20;74.30;;;;;;5076140;28;20051;-75
2023/10/01 04:31:22;;;;;;;17.60;10.55;;;20.40;74.20;;;;;;5100739;28;20040;-74
2023/10/01 04:33:50;;;;;;;15.10;9.20;;;20.50;74.20;;;;;;5106330;27;20044;-74
2023/10/01 04:36:20;;;;;;;33.83;18.48;;;20.20;74.50;;;;;;5108422;27;20043;-74
2023/10/01 04:38:51;;;;;;;68.47;39.67;;;20.30;74.40;;;;;;5091720;27;20074;-74
2023/10/01 04:41:22;;;;;;;105.70;61.28;;;20.40;74.60;;;;;;5087658;27;20212;-74
2023/10/01 04:43:55;;;;;;;49.72;33.13;;;20.50;74.70;;;;;;5125277;27;20042;-73
2023/10/01 04:46:45;;;;;;;;;;;20.50;74.40;;;;;;5106033;27;20084;-73
2023/10/01 04:49:31;;;;;;;16.02;8.45;;;20.60;74.30;;;;;;5107099;27;19919;-74
2023/10/01 04:52:10;;;;;;;14.00;8.15;;;20.60;74.20;;;;;;5103181;27;20055;-74
2023/10/01 04:54:40;;;;;;;16.17;7.55;;;20.60;74.20;;;;;;5088754;27;20039;-74
2023/10/01 04:57:08;;;;;;;12.63;7.25;;;20.70;74.30;;;;;;5095566;27;20043;-74
2023/10/01 04:59:56;;;;;;;26.58;8.07;;;20.60;74.40;;;;;;5092012;27;20042;-74
2023/10/01 05:02:25;;;;;;;14.82;7.75;;;20.60;74.70;;;;;;5108659;27;20406;-74
2023/10/01 05:05:08;;;;;;;11.82;6.95;;;20.60;74.70;;;;;;5106846;27;20418;-74
2023/10/01 05:07:38;;;;;;;11.45;6.80;;;20.30;75.30;;;;;;5110913;27;20050;-73
2023/10/01 05:10:09;;;;;;;13.38;6.20;;;19.90;76.40;;;;;;5108366;27;20376;-73
2023/10/01 05:12:43;;;;;;;11.38;6.28;;;19.90;76.90;;;;;;5111760;27;20035;-73
2023/10/01 05:15:25;;;;;;;12.20;6.88;;;20.00;77.00;;;;;;5108861;27;20104;-75
2023/10/01 05:17:55;;;;;;;12.07;6.28;;;20.00;77.40;;;;;;5087242;28;20110;-74
2023/10/01 05:20:25;;;;;;;11.73;5.43;;;19.90;77.60;;;;;;5110333;27;20043;-76
2023/10/01 05:22:54;;;;;;;9.32;6.00;;;19.90;77.90;;;;;;5095916;27;20047;-76
2023/10/01 05:25:24;;;;;;;10.25;5.82;;;20.00;77.70;;;;;;5112930;27;20058;-75
2023/10/01 05:28:23;;;;;;;10.20;6.38;;;20.20;77.30;;;;;;5109147;27;20027;-74
2023/10/01 05:30:57;;;;;;;11.95;6.10;;;20.20;77.10;;;;;;5107625;27;20383;-74
2023/10/01 05:33:25;;;;;;;13.82;5.88;;;20.30;77.30;;;;;;5105970;27;20149;-73
2023/10/01 05:35:57;;;;;;;11.18;6.15;;;20.20;77.60;;;;;;5095452;27;20062;-74
2023/10/01 05:38:44;;;;;;;22.83;6.28;;;20.20;77.40;;;;;;5096496;27;20024;-72
2023/10/01 05:41:16;;;;;;;10.88;5.93;;;20.30;77.60;;;;;;5095659;27;20039;-75
2023/10/01 05:43:43;;;;;;;11.48;6.28;;;20.10;78.00;;;;;;5093945;27;20458;-73
2023/10/01 05:46:11;;;;;;;10.20;6.22;;;19.80;78.50;;;;;;5112796;27;20459;-76
2023/10/01 05:48:39;;;;;;;15.50;6.28;;;19.60;79.50;;;;;;5112597;27;20404;-74
2023/10/01 05:51:18;;;;;;;10.38;5.68;;;19.80;79.10;;;;;;5111523;27;20050;-75
2023/10/01 05:53:46;;;;;;;12.90;5.57;;;20.00;78.80;;;;;;5090893;27;20040;-74
2023/10/01 05:56:20;;;;;;;10.95;5.75;;;20.30;78.00;;;;;;5095405;27;20049;-73
2023/10/01 05:59:06;;;;;;;11.27;7.60;;;20.30;78.00;;;;;;5113236;28;20046;-72
2023/10/01 06:01:34;;;;;;;11.38;5.80;;;20.50;78.50;;;;;;5111207;27;20035;-72
2023/10/01 06:04:02;;;;;;;15.77;5.68;;;20.80;78.60;;;;;;5095437;28;20036;-75
2023/10/01 06:06:36;;;;;;;16.90;6.43;;;21.00;77.40;;;;;;5111553;28;20042;-74
2023/10/01 06:09:09;;;;;;;16.15;7.78;;;21.10;77.30;;;;;;5110344;27;20031;-73
2023/10/01 06:11:39;;;;;;;10.63;6.28;;;21.20;77.20;;;;;;5111796;28;20035;-73
2023/10/01 06:14:08;;;;;;;;;;;21.20;77.50;;;;;;5110357;28;20032;-75
2023/10/01 06:16:39;;;;;;;10.20;6.75;;;21.30;77.70;;;;;;5094901;28;20384;-75
2023/10/01 06:19:11;;;;;;;14.25;7.35;;;21.10;78.30;;;;;;5078797;28;20066;-74
2023/10/01 06:21:41;;;;;;;11.77;6.85;;;20.70;80.10;;;;;;5094147;28;20047;-74
2023/10/01 06:24:10;;;;;;;14.88;6.78;;;20.70;80.60;;;;;;5094365;28;20047;-74
2023/10/01 06:26:45;;;;;;;28.00;6.65;;;20.70;80.20;;;;;;5093519;28;20092;-74
2023/10/01 06:29:14;;;;;;;15.00;7.20;;;20.80;80.40;;;;;;5094460;28;20046;-74
2023/10/01 06:32:01;;;;;;;184.75;112.32;;;21.00;79.50;;;;;;5093694;28;20051;-73
2023/10/01 06:34:32;;;;;;;165.07;103.30;;;21.20;79.20;;;;;;5092463;28;20043;-73
2023/10/01 06:37:01;;;;;;;59.00;39.53;;;21.50;78.40;;;;;;5093545;28;20062;-73
2023/10/01 06:39:32;;;;;;;59.50;35.75;;;21.60;77.60;;;;;;5102344;28;20479;-73
2023/10/01 06:42:19;;;;;;;40.25;23.38;;;21.50;77.30;;;;;;5102860;28;20066;-74
2023/10/01 06:44:55;;;;;;;117.32;68.93;;;21.40;77.60;;;;;;5094380;28;20039;-75
2023/10/01 06:47:23;;;;;;;59.78;39.42;;;21.70;78.20;;;;;;5094671;27;20123;-75
2023/10/01 06:52:35;;;;;;;43.70;28.38;;;21.70;77.50;;;;;;5130318;27;20055;-72
2023/10/01 06:55:03;;;;;;;;;;;21.90;77.40;;;;;;5091846;27;20192;-75
2023/10/01 06:57:33;;;;;;;25.83;14.95;;;22.10;76.60;;;;;;5110121;28;19920;-73
2023/10/01 07:00:03;;;;;;;28.17;17.83;;;22.10;75.90;;;;;;5100123;28;20049;-77
2023/10/01 07:02:31;;;;;;;15.60;10.05;;;22.30;75.60;;;;;;5096250;27;20288;-77
2023/10/01 07:04:59;;;;;;;29.85;15.93;;;22.00;75.80;;;;;;5096374;28;20079;-75
2023/10/01 07:07:42;;;;;;;20.75;11.55;;;22.10;76.20;;;;;;5098019;27;20047;-74
2023/10/01 07:10:10;;;;;;;28.80;13.95;;;22.30;75.50;;;;;;5089371;27;20039;-74
2023/10/01 07:12:53;;;;;;;23.00;12.02;;;22.40;75.40;;;;;;5097262;27;20097;-76
2023/10/01 07:15:25;;;;;;;18.75;11.00;;;22.50;75.40;;;;;;5090594;27;20039;-76
2023/10/01 07:17:57;;;;;;;14.68;8.05;;;22.70;75.00;;;;;;5093777;27;20134;-77
2023/10/01 07:20:25;;;;;;;67.75;40.70;;;22.70;74.60;;;;;;5106869;27;20070;-74
2023/10/01 07:22:54;;;;;;;48.22;30.27;;;22.70;74.80;;;;;;5115120;27;20043;-77
2023/10/01 07:25:43;;;;;;;20.10;13.20;;;22.70;74.80;;;;;;5094831;28;20040;-75
2023/10/01 07:28:13;;;;;;;14.15;8.90;;;22.70;74.60;;;;;;5092495;27;20047;-73
2023/10/01 07:30:47;;;;;;;14.80;8.85;;;22.70;75.00;;;;;;5095422;27;20032;-75
2023/10/01 07:33:17;;;;;;;20.65;9.30;;;22.80;75.00;;;;;;5117477;27;20059;-77
2023/10/01 07:35:45;;;;;;;16.15;8.75;;;22.90;74.80;;;;;;5108710;27;20047;-76
2023/10/01 07:38:13;;;;;;;15.93;8.77;;;22.80;75.10;;;;;;5113643;27;20469;-73
2023/10/01 07:40:57;;;;;;;16.00;8.63;;;22.80;75.30;;;;;;5098624;27;20386;-75
2023/10/01 07:43:26;;;;;;;17.67;8.85;;;22.80;75.70;;;;;;5116665;27;20030;-76
2023/10/01 07:45:59;;;;;;;15.32;8.73;;;22.90;76.50;;;;;;5094619;27;20055;-73
2023/10/01 07:48:29;;;;;;;15.50;7.90;;;23.00;75.90;;;;;;5094977;27;20371;-74
2023/10/01 07:51:02;;;;;;;21.42;8.43;;;22.50;76.10;;;;;;5111448;27;20043;-73
2023/10/01 07:53:33;;;;;;;16.40;10.55;;;22.50;76.90;;;;;;5111060;27;20375;-76
2023/10/01 07:56:07;;;;;;;44.40;31.13;;;22.60;76.00;;;;;;5114258;27;20043;-73
2023/10/01 07:58:47;;;;;;;18.60;12.00;;;23.00;76.20;;;;;;5112972;27;20513;-75
2023/10/01 08:04:08;;;;;;;16.45;10.43;;;23.50;74.70;;;;;;5129419;27;20027;-74
2023/10/01 08:06:42;;;;;;;17.58;9.50;;;23.40;75.00;;;;;;5129562;27;20678;-76
2023/10/01 08:09:13;;;;;;;15.52;9.38;;;23.30;75.00;;;;;;5096046;27;20043;-74
2023/10/01 08:12:05;;;;;;;15.30;8.38;;;23.20;75.50;;;;;;5113473;27;20035;-75
2023/10/01 08:14:33;;;;;;;24.85;10.63;;;23.20;75.70;;;;;;5126672;27;20114;-77
2023/10/01 08:17:07;;;;;;;19.38;10.75;;;23.20;76.60;;;;;;5114120;27;20543;-76
2023/10/01 08:19:54;;;;;;;34.00;13.00;;;23.40;76.70;;;;;;5114402;27;20039;-73
2023/10/01 08:22:43;;;;;;;31.42;12.60;;;23.80;76.30;;;;;;5112243;27;20032;-75
2023/10/01 08:25:12;;;;;;;26.98;11.73;;;24.20;75.00;;;;;;5109812;27;20071;-77
2023/10/01 08:28:26;;;;;;;27.50;15.48;;;24.00;74.70;;;;;;5110291;27;20200;-77
2023/10/01 08:30:39;;;;;;;59.42;37.15;;;22.80;78.00;;;;;;5122785;27;20044;-75
2023/10/01 08:33:19;;;;;;;37.90;23.38;;;22.70;77.90;;;;;;5113245;27;20150;-75
2023/10/01 08:39:20;;;;;;;22.42;11.40;;;23.90;75.70;;;;;;5068279;28;20032;-85
2023/10/01 08:41:56;;;;;;;22.65;12.40;;;23.80;75.90;;;;;;5123327;27;20104;-87
2023/10/01 08:44:33;;;;;;;;;;;23.90;75.60;;;;;;5108248;27;20045;-78
2023/10/01 08:47:21;;;;;;;23.05;11.70;;;24.50;74.50;;;;;;5113296;27;20293;-84
2023/10/01 08:49:51;;;;;;;19.63;10.80;;;24.50;73.50;;;;;;5107260;27;20047;-89
2023/10/01 08:52:30;;;;;;;22.48;12.50;;;24.30;73.80;;;;;;5099722;27;20494;-82
2023/10/01 08:55:00;;;;;;;23.13;12.55;;;23.50;75.90;;;;;;5094918;27;20039;-78
2023/10/01 08:57:38;;;;;;;21.48;12.48;;;24.00;75.40;;;;;;5058859;27;20525;-78
2023/10/01 09:00:19;;;;;;;27.67;12.98;;;24.30;74.20;;;;;;5094462;27;20054;-76
2023/10/01 09:03:10;;;;;;;20.63;12.20;;;23.80;74.70;;;;;;5092192;27;20081;-77
2023/10/01 09:05:46;;;;;;;16.73;9.57;;;24.00;75.10;;;;;;5110906;27;20394;-76
2023/10/01 09:08:29;;;;;;;18.55;11.07;;;24.20;74.10;;;;;;5095002;27;20039;-76
2023/10/01 09:11:11;;;;;;;20.13;10.75;;;24.40;74.50;;;;;;5111379;27;20047;-77
2023/10/01 09:13:58;;;;;;;19.65;9.63;;;24.70;73.80;;;;;;5108781;27;20039;-76
2023/10/01 09:16:34;;;;;;;23.33;10.23;;;25.10;73.20;;;;;;5074947;27;20139;-77
2023/10/01 09:19:29;;;;;;;21.73;11.93;;;25.10;72.30;;;;;;5095189;27;20130;-76
2023/10/01 09:21:55;;;;;;;18.92;12.05;;;25.10;72.60;;;;;;5100616;27;20387;-80
2023/10/01 09:24:34;;;;;;;17.73;11.07;;;25.70;71.70;;;;;;5105225;27;20043;-76
2023/10/01 09:27:19;;;;;;;19.00;11.80;;;26.00;70.60;;;;;;5090388;27;20102;-74
2023/10/01 09:29:57;;;;;;;17.27;10.85;;;26.30;70.00;;;;;;5112693;27;20598;-82
2023/10/01 09:32:51;;;;;;;18.27;11.73;;;26.40;69.50;;;;;;5093801;28;20210;-76
2023/10/01 09:35:30;;;;;;;22.52;11.95;;;26.30;68.90;;;;;;5106753;27;20166;-86
2023/10/01 09:38:10;;;;;;;17.77;11.20;;;26.20;68.00;;;;;;5093579;27;20146;-76
2023/10/01 09:40:44;;;;;;;22.17;11.57;;;26.20;68.00;;;;;;5107586;27;20043;-77
2023/10/01 09:43:24;;;;;;;19.02;10.35;;;26.20;68.10;;;;;;5113190;27;20039;-77
2023/10/01 09:45:57;;;;;;;19.20;12.15;;;26.40;67.50;;;;;;5100832;27;20057;-80
2023/10/01 09:48:48;;;;;;;20.38;11.43;;;26.50;67.30;;;;;;5084553;28;20046;-76
2023/10/01 09:51:31;;;;;;;16.52;10.90;;;26.30;67.60;;;;;;5102943;27;20055;-80
2023/10/01 09:54:01;;;;;;;20.52;12.25;;;26.90;67.30;;;;;;5098288;27;20082;-76
2023/10/01 09:56:31;;;;;;;19.48;10.90;;;27.20;66.90;;;;;;5085907;28;20039;-75
2023/10/01 09:59:07;;;;;;;24.50;12.02;;;26.80;66.80;;;;;;5084460;28;20039;-76
2023/10/01 10:01:38;;;;;;;20.38;10.80;;;26.20;68.00;;;;;;5107828;27;20061;-76
2023/10/01 10:04:12;;;;;;;20.83;11.40;;;26.30;68.70;;;;;;5096584;28;20438;-76
2023/10/01 10:06:41;;;;;;;21.58;11.27;;;26.40;68.80;;;;;;5095943;28;20047;-76
2023/10/01 10:09:26;;;;;;;19.17;11.32;;;25.40;68.90;;;;;;5112449;28;20046;-75
2023/10/01 10:11:54;;;;;;;20.50;10.07;;;25.10;70.50;;;;;;5111151;28;20039;-75
2023/10/01 10:14:28;;;;;;;26.52;11.63;;;24.70;70.20;;;;;;5094312;28;20066;-87
2023/10/01 10:16:58;;;;;;;18.08;10.73;;;25.30;70.20;;;;;;5105974;28;20094;-75
2023/10/01 10:19:31;;;;;;;20.02;11.15;;;25.50;68.10;;;;;;5124359;27;20358;-77
2023/10/01 10:24:46;;;;;;;21.35;11.02;;;25.10;68.70;;;;;;5140244;27;20043;-75
2023/10/01 10:27:27;;;;;;;;;;;25.50;68.50;;;;;;5095738;27;20051;-80
2023/10/01 10:30:00;;;;;;;20.73;10.63;;;25.60;67.50;;;;;;5099053;27;20038;-79
2023/10/01 10:32:30;;;;;;;20.40;11.52;;;25.30;68.20;;;;;;5081291;28;20391;-76
2023/10/01 10:35:04;;;;;;;18.98;10.23;;;25.30;69.60;;;;;;5092672;27;20107;-75
2023/10/01 10:37:44;;;;;;;20.27;10.80;;;25.90;67.40;;;;;;5105146;27;20047;-80
2023/10/01 10:40:12;;;;;;;21.67;10.27;;;26.40;67.40;;;;;;5114124;27;20032;-82
2023/10/01 10:43:07;;;;;;;26.20;11.20;;;25.30;68.00;;;;;;5100217;27;20047;-78
2023/10/01 10:45:42;;;;;;;19.42;10.25;;;25.00;69.50;;;;;;5096867;27;20620;-76
2023/10/01 10:48:24;;;;;;;21.67;11.05;;;25.60;68.00;;;;;;5094715;27;20067;-77
2023/10/01 10:50:57;;;;;;;18.15;9.77;;;26.10;66.80;;;;;;5119511;27;20732;-79
2023/10/01 10:53:37;;;;;;;20.77;10.20;;;24.80;68.70;;;;;;5098284;27;20387;-80
2023/10/01 10:56:18;;;;;;;21.45;9.60;;;24.20;70.50;;;;;;5113564;27;20099;-79
2023/10/01 10:59:01;;;;;;;19.85;10.40;;;24.30;71.10;;;;;;5088495;27;20044;-76
2023/10/01 11:01:46;;;;;;;21.70;11.32;;;24.10;71.30;;;;;;5099276;27;20119;-77
2023/10/01 11:04:16;;;;;;;24.05;10.10;;;24.00;71.90;;;;;;5081447;27;20148;-78
2023/10/01 11:07:04;;;;;;;24.77;11.13;;;25.00;70.00;;;;;;5095446;27;20043;-87
2023/10/01 11:09:40;;;;;;;21.00;11.32;;;24.70;70.60;;;;;;5099781;27;20047;-79
2023/10/01 11:12:21;;;;;;;21.08;10.18;;;25.30;69.50;;;;;;5072005;27;20043;-83
2023/10/01 11:17:47;;;;;;;18.08;9.57;;;25.30;68.10;;;;;;5113124;27;20052;-77
2023/10/01 11:20:22;;;;;;;20.73;10.23;;;25.90;67.20;;;;;;5108733;27;20050;-77
2023/10/01 11:22:54;;;;;;;24.30;10.80;;;25.90;67.10;;;;;;5118346;27;20054;-76
2023/10/01 11:25:24;;;;;;;21.67;9.85;;;25.30;68.50;;;;;;5120500;27;20028;-81
2023/10/01 11:28:05;;;;;;;20.40;10.38;;;25.70;68.50;;;;;;5066823;27;20419;-81
2023/10/01 11:30:42;;;;;;;18.73;9.70;;;26.00;69.10;;;;;;5082498;27;20382;-78
2023/10/01 11:33:13;;;;;;;19.65;10.13;;;26.90;66.40;;;;;;5088353;27;20075;-78
2023/10/01 11:36:35;;;;;;;48.05;29.63;;;26.90;66.60;;;;;;5087189;27;20557;-77
2023/10/01 11:39:06;;;;;;;22.45;12.50;;;25.80;67.90;;;;;;5083308;27;20410;-76
2023/10/01 11:41:45;;;;;;;38.30;21.08;;;25.30;68.60;;;;;;5117308;27;20035;-77
2023/10/01 11:44:25;;;;;;;21.77;10.82;;;25.20;68.70;;;;;;5085168;27;20047;-77
2023/10/01 11:46:59;;;;;;;22.38;12.25;;;25.20;69.10;;;;;;5117878;27;20039;-76
2023/10/01 11:49:39;;;;;;;21.48;11.25;;;25.70;68.70;;;;;;5082091;28;20039;-78
2023/10/01 11:52:25;;;;;;;23.52;12.20;;;25.30;68.00;;;;;;5082557;28;20108;-77
2023/10/01 11:54:53;;;;;;;21.48;11.65;;;25.40;68.20;;;;;;5111900;27;20035;-79
2023/10/01 11:57:35;;;;;;;23.10;10.30;;;25.60;68.70;;;;;;5107321;27;20028;-76
2023/10/01 12:00:06;;;;;;;22.52;11.27;;;25.30;68.70;;;;;;5089588;27;20043;-80
2023/10/01 12:02:43;;;;;;;25.92;12.05;;;25.50;68.10;;;;;;5112402;27;20047;-78
2023/10/01 12:05:16;;;;;;;22.58;14.40;;;25.60;67.90;;;;;;5085427;27;20504;-78
2023/10/01 12:08:34;;;;;;;23.48;11.75;;;26.20;66.90;;;;;;5111160;27;20575;-77
2023/10/01 12:14:17;;;;;;;18.92;10.45;;;25.70;66.80;;;;;;5105146;27;20054;-83
2023/10/01 12:17:15;;;;;;;28.23;10.85;;;26.30;66.00;;;;;;5100582;27;20403;-83
2023/10/01 12:20:28;;;;;;;23.67;12.18;;;26.70;65.60;;;;;;5111732;27;20391;-83
2023/10/01 12:23:26;;;;;;;19.95;10.90;;;26.30;66.50;;;;;;5097840;27;20080;-80
2023/10/01 12:29:25;;;;;;;28.55;12.00;;;26.30;66.50;;;;;;5127146;27;20146;-82
2023/10/01 12:32:48;;;;;;;23.80;11.77;;;26.20;66.70;;;;;;5109941;27;20051;-83
2023/10/01 12:35:46;;;;;;;26.65;13.00;;;25.90;67.40;;;;;;5106814;27;20403;-84
2023/10/01 12:38:34;;;;;;;35.05;14.35;;;26.40;66.70;;;;;;5066865;27;20038;-85
2023/10/01 12:41:19;;;;;;;25.75;13.20;;;26.70;66.80;;;;;;5066991;27;20053;-80
2023/10/01 12:44:32;;;;;;;25.38;12.63;;;27.20;65.30;;;;;;5126619;27;20071;-81
2023/10/01 12:47:07;;;;;;;27.25;13.43;;;27.70;64.70;;;;;;5078285;27;20043;-83
2023/10/01 12:50:31;;;;;;;24.77;14.38;;;28.10;63.90;;;;;;5112517;27;21453;-85
2023/10/01 12:53:50;;;;;;;30.65;16.60;;;28.10;63.00;;;;;;5124609;27;20035;-84
2023/10/01 12:57:25;;;;;;;24.48;13.40;;;26.90;65.10;;;;;;5123731;27;20490;-81
2023/10/01 13:01:31;;;;;;;22.63;11.35;;;27.70;64.00;;;;;;5128679;27;20051;-84
2023/10/01 13:05:17;;;;;;;24.83;12.45;;;27.00;64.90;;;;;;5119007;27;20076;-82
2023/10/01 13:09:00;;;;;;;25.30;12.10;;;26.40;65.20;;;;;;5118805;27;20580;-83
2023/10/01 13:12:39;;;;;;;75.25;44.85;;;26.40;65.10;;;;;;5098339;27;20052;-84
2023/10/01 13:28:45;;;;;;;21.65;13.50;;;26.20;66.60;;;;;;5079160;28;20052;-84
2023/10/01 13:32:35;;;;;;;25.48;12.63;;;25.20;67.10;;;;;;5018833;28;20660;-80
2023/10/01 13:40:11;;;;;;;23.17;11.98;;;25.80;66.90;;;;;;5005853;28;20509;-81
2023/10/01 14:09:15;;;;;;;20.80;11.73;;;27.10;63.60;;;;;;5073554;28;20114;-82
2023/10/01 14:11:54;;;;;;;21.33;12.05;;;27.80;61.60;;;;;;5069513;28;20047;-88
2023/10/01 14:14:45;;;;;;;26.75;12.60;;;28.00;61.30;;;;;;5106671;28;20050;-85
2023/10/01 14:18:55;;;;;;;22.33;12.18;;;28.00;61.10;;;;;;5096803;28;20039;-85
2023/10/01 14:27:06;;;;;;;26.70;12.45;;;25.40;66.60;;;;;;5097098;28;20043;-85
2023/10/01 14:30:50;;;;;;;27.92;13.65;;;24.80;68.30;;;;;;5093005;28;20043;-81
2023/10/01 14:38:04;;;;;;;23.85;11.88;;;25.10;68.20;;;;;;5070613;28;20082;-80
2023/10/01 14:41:21;;;;;;;26.60;13.30;;;25.20;67.90;;;;;;5060470;28;20055;-86
2023/10/01 14:49:43;;;;;;;24.67;12.35;;;25.00;68.30;;;;;;5038681;28;20052;-85
2023/10/01 14:53:27;;;;;;;23.85;12.23;;;25.00;67.90;;;;;;5032742;28;20041;-84
2023/10/01 15:01:09;;;;;;;121.40;72.30;;;24.80;68.70;;;;;;5074916;28;20060;-85
2023/10/01 15:04:29;;;;;;;66.53;40.28;;;24.80;68.40;;;;;;5046125;28;20047;-87
2023/10/01 15:07:23;;;;;;;25.25;12.32;;;24.80;69.20;;;;;;5045375;28;20075;-82
2023/10/01 15:10:37;;;;;;;20.38;11.05;;;25.00;68.10;;;;;;5059167;28;20062;-84